sensor_id;sensor_type;location;lat;lon;timestamp;temperature;humidity
15676;DHT22;7938;47.666;9.434;2022-10-15T04:00:32;13.90;99.90
15676;DHT22;7938;47.666;9.434;2022-10-15T04:02:59;13.90;99.90
15676;DHT22;7938;47.666;9.434;2022-10-15T04:05:26;13.90;99.90
15676;DHT22;7938;47.666;9.434;2022-10-15T04:07:53;13.90;99.90
15676;DHT22;7938;47.666;9.434;2022-10-15T04:10:20;13.90;99.90
15676;DHT22;7938;47.666;9.434;2022-10-15T04:12:47;13.90;99.90
15676;DHT22;7938;47.666;9.434;2022-10-15T04:15:13;14.70;99.90
15676;DHT22;7938;47.666;9.434;2022-10-15T04:17:42;14.10;99.90
15676;DHT22;7938;47.666;9.434;2022-10-15T04:20:09;13.90;99.90
15676;DHT22;7938;47.666;9.434;2022-10-15T04:22:37;14.00;99.90
15676;DHT22;7938;47.666;9.434;2022-10-15T04:25:04;14.00;99.90
15676;DHT22;7938;47.666;9.434;2022-10-15T04:27:31;14.00;99.90
15676;DHT22;7938;47.666;9.434;2022-10-15T04:29:58;14.00;99.90
15676;DHT22;7938;47.666;9.434;2022-10-15T04:32:25;14.10;99.90
15676;DHT22;7938;47.666;9.434;2022-10-15T04:34:53;14.20;99.90
15676;DHT22;7938;47.666;9.434;2022-10-15T04:37:20;14.20;99.90
15676;DHT22;7938;47.666;9.434;2022-10-15T04:39:47;14.20;99.90
15676;DHT22;7938;47.666;9.434;2022-10-15T04:42:14;14.20;99.90
15676;DHT22;7938;47.666;9.434;2022-10-15T04:44:40;14.20;99.90
15676;DHT22;7938;47.666;9.434;2022-10-15T04:47:07;14.20;99.90
15676;DHT22;7938;47.666;9.434;2022-10-15T04:49:34;14.20;99.90
15676;DHT22;7938;47.666;9.434;2022-10-15T04:52:02;14.20;99.90
15676;DHT22;7938;47.666;9.434;2022-10-15T04:54:29;14.20;99.90
15676;DHT22;7938;47.666;9.434;2022-10-15T04:56:56;14.20;99.90
15676;DHT22;7938;47.666;9.434;2022-10-15T04:59:23;14.20;99.90
15676;DHT22;7938;47.666;9.434;2022-10-15T05:01:50;14.20;99.90
15676;DHT22;7938;47.666;9.434;2022-10-15T05:04:17;14.20;99.90
15676;DHT22;7938;47.666;9.434;2022-10-15T05:06:43;14.20;99.90
15676;DHT22;7938;47.666;9.434;2022-10-15T05:09:12;14.20;99.90
15676;DHT22;7938;47.666;9.434;2022-10-15T05:11:39;14.20;99.90
15676;DHT22;7938;47.666;9.434;2022-10-15T05:14:06;14.20;99.90
15676;DHT22;7938;47.666;9.434;2022-10-15T05:16:33;14.20;99.90
15676;DHT22;7938;47.666;9.434;2022-10-15T05:19:02;14.30;99.90
15676;DHT22;7938;47.666;9.434;2022-10-15T05:21:30;14.30;99.90
15676;DHT22;7938;47.666;9.434;2022-10-15T05:23:57;14.20;99.90
15676;DHT22;7938;47.666;9.434;2022-10-15T05:26:27;14.30;99.90
15676;DHT22;7938;47.666;9.434;2022-10-15T05:28:55;14.30;99.90
15676;DHT22;7938;47.666;9.434;2022-10-15T05:31:24;14.30;99.90
15676;DHT22;7938;47.666;9.434;2022-10-15T05:33:52;14.30;99.90
15676;DHT22;7938;47.666;9.434;2022-10-15T05:36:21;14.30;99.90
15676;DHT22;7938;47.666;9.434;2022-10-15T05:38:50;14.20;99.90
15676;DHT22;7938;47.666;9.434;2022-10-15T05:41:17;14.20;99.90
15676;DHT22;7938;47.666;9.434;2022-10-15T05:43:47;14.20;99.90
15676;DHT22;7938;47.666;9.434;2022-10-15T05:46:14;14.20;99.90
15676;DHT22;7938;47.666;9.434;2022-10-15T05:48:41;14.20;99.90
15676;DHT22;7938;47.666;9.434;2022-10-15T05:51:11;14.20;99.90
15676;DHT22;7938;47.666;9.434;2022-10-15T05:53:38;14.30;99.90
15676;DHT22;7938;47.666;9.434;2022-10-15T05:56:08;14.20;99.90
15676;DHT22;7938;47.666;9.434;2022-10-15T05:58:35;14.20;99.90
15676;DHT22;7938;47.666;9.434;2022-10-15T06:01:05;14.20;99.90
15676;DHT22;7938;47.666;9.434;2022-10-15T06:03:33;14.20;99.90
15676;DHT22;7938;47.666;9.434;2022-10-15T06:05:59;14.20;99.90
15676;DHT22;7938;47.666;9.434;2022-10-15T06:08:27;14.10;99.90
15676;DHT22;7938;47.666;9.434;2022-10-15T06:10:54;14.10;99.90
15676;DHT22;7938;47.666;9.434;2022-10-15T06:13:23;14.10;99.90
15676;DHT22;7938;47.666;9.434;2022-10-15T06:15:50;14.10;99.90
15676;DHT22;7938;47.666;9.434;2022-10-15T06:18:18;14.10;99.90
15676;DHT22;7938;47.666;9.434;2022-10-15T06:20:49;14.10;99.90
15676;DHT22;7938;47.666;9.434;2022-10-15T06:23:16;14.10;99.90
15676;DHT22;7938;47.666;9.434;2022-10-15T06:25:43;14.00;99.90
15676;DHT22;7938;47.666;9.434;2022-10-15T06:28:10;14.10;99.90
15676;DHT22;7938;47.666;9.434;2022-10-15T06:30:37;14.10;99.90
15676;DHT22;7938;47.666;9.434;2022-10-15T06:33:04;14.10;99.90
15676;DHT22;7938;47.666;9.434;2022-10-15T06:35:32;14.20;99.90
15676;DHT22;7938;47.666;9.434;2022-10-15T06:38:00;14.20;99.90
15676;DHT22;7938;47.666;9.434;2022-10-15T06:40:28;14.10;99.90
15676;DHT22;7938;47.666;9.434;2022-10-15T06:42:55;14.10;99.90
15676;DHT22;7938;47.666;9.434;2022-10-15T06:45:28;14.10;99.90
15676;DHT22;7938;47.666;9.434;2022-10-15T06:47:55;14.10;99.90
15676;DHT22;7938;47.666;9.434;2022-10-15T06:50:22;14.10;99.90
15676;DHT22;7938;47.666;9.434;2022-10-15T06:52:50;14.10;99.90
15676;DHT22;7938;47.666;9.434;2022-10-15T06:55:17;14.10;99.90
15676;DHT22;7938;47.666;9.434;2022-10-15T06:57:44;14.20;99.90
15676;DHT22;7938;47.666;9.434;2022-10-15T07:00:12;14.20;99.90
15676;DHT22;7938;47.666;9.434;2022-10-15T07:02:39;14.20;99.90
15676;DHT22;7938;47.666;9.434;2022-10-15T07:05:07;14.30;99.90
15676;DHT22;7938;47.666;9.434;2022-10-15T07:07:34;14.30;99.90
15676;DHT22;7938;47.666;9.434;2022-10-15T07:10:02;14.40;99.90
15676;DHT22;7938;47.666;9.434;2022-10-15T07:12:29;14.40;99.90
15676;DHT22;7938;47.666;9.434;2022-10-15T07:14:56;14.50;99.90
15676;DHT22;7938;47.666;9.434;2022-10-15T07:17:23;14.50;99.90
15676;DHT22;7938;47.666;9.434;2022-10-15T07:19:50;14.50;99.90
15676;DHT22;7938;47.666;9.434;2022-10-15T07:22:17;14.50;99.90
15676;DHT22;7938;47.666;9.434;2022-10-15T07:24:44;14.60;99.90
15676;DHT22;7938;47.666;9.434;2022-10-15T07:27:12;14.70;99.90
15676;DHT22;7938;47.666;9.434;2022-10-15T07:29:39;14.70;99.90
15676;DHT22;7938;47.666;9.434;2022-10-15T07:32:06;14.90;99.90
15676;DHT22;7938;47.666;9.434;2022-10-15T07:34:33;14.90;99.90
15676;DHT22;7938;47.666;9.434;2022-10-15T07:37:00;15.10;99.90
15676;DHT22;7938;47.666;9.434;2022-10-15T07:39:26;15.10;99.90
15676;DHT22;7938;47.666;9.434;2022-10-15T07:41:53;15.20;99.90
15676;DHT22;7938;47.666;9.434;2022-10-15T07:44:22;15.20;99.90
15676;DHT22;7938;47.666;9.434;2022-10-15T07:46:48;15.10;99.90
15676;DHT22;7938;47.666;9.434;2022-10-15T07:49:15;15.20;99.90
15676;DHT22;7938;47.666;9.434;2022-10-15T07:51:42;15.20;99.90
15676;DHT22;7938;47.666;9.434;2022-10-15T07:54:09;15.30;99.90
15676;DHT22;7938;47.666;9.434;2022-10-15T07:56:36;15.30;99.90
15676;DHT22;7938;47.666;9.434;2022-10-15T07:59:03;15.30;99.90
15676;DHT22;7938;47.666;9.434;2022-10-15T08:01:31;15.30;99.90
15676;DHT22;7938;47.666;9.434;2022-10-15T08:03:58;15.30;99.90
15676;DHT22;7938;47.666;9.434;2022-10-15T08:06:25;15.40;99.90
15676;DHT22;7938;47.666;9.434;2022-10-15T08:08:51;15.50;99.90
15676;DHT22;7938;47.666;9.434;2022-10-15T08:11:18;15.50;99.90
15676;DHT22;7938;47.666;9.434;2022-10-15T08:13:45;15.50;99.90
15676;DHT22;7938;47.666;9.434;2022-10-15T08:16:14;15.60;99.90
15676;DHT22;7938;47.666;9.434;2022-10-15T08:18:44;15.60;99.90
15676;DHT22;7938;47.666;9.434;2022-10-15T08:21:12;15.70;99.90
15676;DHT22;7938;47.666;9.434;2022-10-15T08:23:38;15.70;99.90
15676;DHT22;7938;47.666;9.434;2022-10-15T08:26:05;15.80;99.90
15676;DHT22;7938;47.666;9.434;2022-10-15T08:28:33;15.80;99.90
15676;DHT22;7938;47.666;9.434;2022-10-15T08:31:01;15.80;99.90
15676;DHT22;7938;47.666;9.434;2022-10-15T08:33:28;15.90;99.90
15676;DHT22;7938;47.666;9.434;2022-10-15T08:35:57;15.90;99.90
15676;DHT22;7938;47.666;9.434;2022-10-15T08:38:23;16.00;99.90
15676;DHT22;7938;47.666;9.434;2022-10-15T08:40:53;16.10;99.90
15676;DHT22;7938;47.666;9.434;2022-10-15T08:43:23;16.20;99.90
15676;DHT22;7938;47.666;9.434;2022-10-15T08:45:54;16.30;99.90
15676;DHT22;7938;47.666;9.434;2022-10-15T08:48:28;16.40;99.90
15676;DHT22;7938;47.666;9.434;2022-10-15T08:51:00;16.40;99.90
15676;DHT22;7938;47.666;9.434;2022-10-15T08:53:28;16.70;99.90
15676;DHT22;7938;47.666;9.434;2022-10-15T08:56:02;16.70;99.90
15676;DHT22;7938;47.666;9.434;2022-10-15T08:58:40;16.90;99.90
15676;DHT22;7938;47.666;9.434;2022-10-15T09:01:15;17.00;99.90
15676;DHT22;7938;47.666;9.434;2022-10-15T09:03:50;17.10;99.90
15676;DHT22;7938;47.666;9.434;2022-10-15T09:06:22;17.00;99.90
15676;DHT22;7938;47.666;9.434;2022-10-15T09:08:57;17.10;99.90
15676;DHT22;7938;47.666;9.434;2022-10-15T09:11:38;17.20;99.90
15676;DHT22;7938;47.666;9.434;2022-10-15T09:14:10;17.30;99.90
15676;DHT22;7938;47.666;9.434;2022-10-15T09:16:40;17.60;99.90
15676;DHT22;7938;47.666;9.434;2022-10-15T09:19:14;18.00;99.90
15676;DHT22;7938;47.666;9.434;2022-10-15T09:21:43;18.00;99.90
15676;DHT22;7938;47.666;9.434;2022-10-15T09:24:13;18.30;99.90
15676;DHT22;7938;47.666;9.434;2022-10-15T09:26:51;18.40;99.90
15676;DHT22;7938;47.666;9.434;2022-10-15T09:29:24;18.60;99.90
15676;DHT22;7938;47.666;9.434;2022-10-15T09:31:59;18.80;99.90
15676;DHT22;7938;47.666;9.434;2022-10-15T09:34:33;18.90;99.90
15676;DHT22;7938;47.666;9.434;2022-10-15T09:37:08;18.80;99.90
15676;DHT22;7938;47.666;9.434;2022-10-15T09:39:46;18.90;99.90
15676;DHT22;7938;47.666;9.434;2022-10-15T09:42:23;18.60;99.90
15676;DHT22;7938;47.666;9.434;2022-10-15T09:44:53;18.50;99.90
15676;DHT22;7938;47.666;9.434;2022-10-15T09:47:23;18.50;99.90
15676;DHT22;7938;47.666;9.434;2022-10-15T09:49:51;18.30;99.90
15676;DHT22;7938;47.666;9.434;2022-10-15T09:52:24;18.30;99.90
15676;DHT22;7938;47.666;9.434;2022-10-15T09:55:02;18.50;99.90
15676;DHT22;7938;47.666;9.434;2022-10-15T09:57:32;18.30;99.90
15676;DHT22;7938;47.666;9.434;2022-10-15T10:00:03;18.30;99.90
15676;DHT22;7938;47.666;9.434;2022-10-15T10:02:30;18.30;99.90
15676;DHT22;7938;47.666;9.434;2022-10-15T10:05:18;18.20;99.90
15676;DHT22;7938;47.666;9.434;2022-10-15T10:07:47;18.20;99.90
15676;DHT22;7938;47.666;9.434;2022-10-15T10:10:23;18.30;99.90
15676;DHT22;7938;47.666;9.434;2022-10-15T10:12:51;18.30;99.90
15676;DHT22;7938;47.666;9.434;2022-10-15T10:15:29;18.20;99.90
15676;DHT22;7938;47.666;9.434;2022-10-15T10:17:57;18.20;99.90
15676;DHT22;7938;47.666;9.434;2022-10-15T10:20:24;18.50;99.90
15676;DHT22;7938;47.666;9.434;2022-10-15T10:22:54;18.50;99.90
15676;DHT22;7938;47.666;9.434;2022-10-15T10:25:28;18.50;99.90
15676;DHT22;7938;47.666;9.434;2022-10-15T10:27:58;18.80;99.90
15676;DHT22;7938;47.666;9.434;2022-10-15T10:30:33;19.20;99.90
15676;DHT22;7938;47.666;9.434;2022-10-15T10:33:01;19.20;99.90
15676;DHT22;7938;47.666;9.434;2022-10-15T10:35:35;19.40;99.90
15676;DHT22;7938;47.666;9.434;2022-10-15T10:38:19;19.50;99.90
15676;DHT22;7938;47.666;9.434;2022-10-15T10:40:49;19.60;99.90
15676;DHT22;7938;47.666;9.434;2022-10-15T10:43:20;19.80;99.90
15676;DHT22;7938;47.666;9.434;2022-10-15T10:45:53;19.60;99.90
15676;DHT22;7938;47.666;9.434;2022-10-15T10:48:22;19.60;99.90
15676;DHT22;7938;47.666;9.434;2022-10-15T10:51:01;19.30;99.90
15676;DHT22;7938;47.666;9.434;2022-10-15T10:53:29;19.40;99.90
15676;DHT22;7938;47.666;9.434;2022-10-15T10:55:57;19.50;99.90
15676;DHT22;7938;47.666;9.434;2022-10-15T10:58:28;19.50;99.90
15676;DHT22;7938;47.666;9.434;2022-10-15T11:00:56;19.30;99.90
15676;DHT22;7938;47.666;9.434;2022-10-15T11:03:30;19.30;99.90
15676;DHT22;7938;47.666;9.434;2022-10-15T11:06:06;19.30;99.90
15676;DHT22;7938;47.666;9.434;2022-10-15T11:08:42;19.60;99.90
15676;DHT22;7938;47.666;9.434;2022-10-15T11:11:18;18.80;99.90
15676;DHT22;7938;47.666;9.434;2022-10-15T11:13:54;18.80;99.90
15676;DHT22;7938;47.666;9.434;2022-10-15T11:16:30;18.60;99.90
15676;DHT22;7938;47.666;9.434;2022-10-15T11:19:11;18.30;99.90
15676;DHT22;7938;47.666;9.434;2022-10-15T11:21:50;18.20;99.90
15676;DHT22;7938;47.666;9.434;2022-10-15T11:24:24;18.10;99.90
15676;DHT22;7938;47.666;9.434;2022-10-15T11:27:17;18.00;99.90
15676;DHT22;7938;47.666;9.434;2022-10-15T11:29:54;17.90;99.90
15676;DHT22;7938;47.666;9.434;2022-10-15T11:32:32;17.80;99.90
15676;DHT22;7938;47.666;9.434;2022-10-15T11:38:08;17.70;99.90
15676;DHT22;7938;47.666;9.434;2022-10-15T11:40:49;17.70;99.90
15676;DHT22;7938;47.666;9.434;2022-10-15T11:43:42;17.60;99.90
15676;DHT22;7938;47.666;9.434;2022-10-15T11:46:21;17.60;99.90
15676;DHT22;7938;47.666;9.434;2022-10-15T11:48:59;17.40;99.90
15676;DHT22;7938;47.666;9.434;2022-10-15T11:51:35;17.40;99.90
15676;DHT22;7938;47.666;9.434;2022-10-15T11:54:12;17.30;99.90
15676;DHT22;7938;47.666;9.434;2022-10-15T11:56:46;17.30;99.90
15676;DHT22;7938;47.666;9.434;2022-10-15T11:59:23;17.30;99.90
15676;DHT22;7938;47.666;9.434;2022-10-15T12:01:58;17.50;99.90
15676;DHT22;7938;47.666;9.434;2022-10-15T12:04:33;17.40;99.90
15676;DHT22;7938;47.666;9.434;2022-10-15T12:07:05;17.40;99.90
15676;DHT22;7938;47.666;9.434;2022-10-15T12:09:35;17.60;99.90
15676;DHT22;7938;47.666;9.434;2022-10-15T12:12:11;17.80;99.90
15676;DHT22;7938;47.666;9.434;2022-10-15T12:14:47;17.90;99.90
15676;DHT22;7938;47.666;9.434;2022-10-15T12:17:20;18.00;99.90
15676;DHT22;7938;47.666;9.434;2022-10-15T12:19:52;18.20;99.90
15676;DHT22;7938;47.666;9.434;2022-10-15T12:22:33;18.30;99.90
15676;DHT22;7938;47.666;9.434;2022-10-15T12:25:02;18.30;99.90
15676;DHT22;7938;47.666;9.434;2022-10-15T12:27:32;18.30;99.90
15676;DHT22;7938;47.666;9.434;2022-10-15T12:30:22;18.30;99.90
15676;DHT22;7938;47.666;9.434;2022-10-15T12:32:52;18.30;99.90
15676;DHT22;7938;47.666;9.434;2022-10-15T12:35:49;18.20;99.90
15676;DHT22;7938;47.666;9.434;2022-10-15T12:38:21;18.20;99.90
15676;DHT22;7938;47.666;9.434;2022-10-15T12:41:02;18.30;99.90
15676;DHT22;7938;47.666;9.434;2022-10-15T12:43:32;18.40;99.90
15676;DHT22;7938;47.666;9.434;2022-10-15T12:46:02;18.30;99.90
15676;DHT22;7938;47.666;9.434;2022-10-15T12:48:33;18.30;99.90
15676;DHT22;7938;47.666;9.434;2022-10-15T12:54:39;18.70;99.90
15676;DHT22;7938;47.666;9.434;2022-10-15T12:57:55;18.80;99.90
15676;DHT22;7938;47.666;9.434;2022-10-15T13:03:15;19.10;99.90
15676;DHT22;7938;47.666;9.434;2022-10-15T13:05:43;19.00;99.90
15676;DHT22;7938;47.666;9.434;2022-10-15T13:08:14;18.90;99.90
15676;DHT22;7938;47.666;9.434;2022-10-15T13:10:47;18.80;99.90
15676;DHT22;7938;47.666;9.434;2022-10-15T13:13:16;18.90;99.90
15676;DHT22;7938;47.666;9.434;2022-10-15T13:15:50;19.00;99.90
15676;DHT22;7938;47.666;9.434;2022-10-15T13:18:20;19.00;99.90
15676;DHT22;7938;47.666;9.434;2022-10-15T13:20:48;19.00;99.90
15676;DHT22;7938;47.666;9.434;2022-10-15T13:23:20;19.10;99.90
15676;DHT22;7938;47.666;9.434;2022-10-15T13:25:48;19.10;99.90
15676;DHT22;7938;47.666;9.434;2022-10-15T13:28:31;19.00;99.90
15676;DHT22;7938;47.666;9.434;2022-10-15T13:30:59;19.40;99.90
15676;DHT22;7938;47.666;9.434;2022-10-15T13:33:29;19.40;99.90
15676;DHT22;7938;47.666;9.434;2022-10-15T13:36:04;19.60;99.90
15676;DHT22;7938;47.666;9.434;2022-10-15T13:38:37;19.70;99.90
15676;DHT22;7938;47.666;9.434;2022-10-15T13:41:07;19.60;99.90
15676;DHT22;7938;47.666;9.434;2022-10-15T13:43:33;19.70;99.90
15676;DHT22;7938;47.666;9.434;2022-10-15T13:46:00;19.60;99.90
15676;DHT22;7938;47.666;9.434;2022-10-15T13:48:30;19.50;99.90
15676;DHT22;7938;47.666;9.434;2022-10-15T13:50:59;19.40;99.90
15676;DHT22;7938;47.666;9.434;2022-10-15T13:53:28;19.60;99.90
15676;DHT22;7938;47.666;9.434;2022-10-15T13:55:58;19.60;99.90
15676;DHT22;7938;47.666;9.434;2022-10-15T13:58:26;19.50;99.90
15676;DHT22;7938;47.666;9.434;2022-10-15T14:00:57;19.60;99.90
15676;DHT22;7938;47.666;9.434;2022-10-15T14:03:26;19.60;99.90
15676;DHT22;7938;47.666;9.434;2022-10-15T14:06:08;19.50;99.90
15676;DHT22;7938;47.666;9.434;2022-10-15T14:08:35;19.20;99.90
15676;DHT22;7938;47.666;9.434;2022-10-15T14:11:02;19.00;99.90
15676;DHT22;7938;47.666;9.434;2022-10-15T14:13:29;18.70;99.90
15676;DHT22;7938;47.666;9.434;2022-10-15T14:16:00;18.60;99.90
15676;DHT22;7938;47.666;9.434;2022-10-15T14:18:34;18.60;99.90
15676;DHT22;7938;47.666;9.434;2022-10-15T14:21:03;18.50;99.90
15676;DHT22;7938;47.666;9.434;2022-10-15T14:26:03;18.50;99.90
15676;DHT22;7938;47.666;9.434;2022-10-15T14:28:31;18.30;99.90
15676;DHT22;7938;47.666;9.434;2022-10-15T14:30:59;18.50;99.90
15676;DHT22;7938;47.666;9.434;2022-10-15T14:33:42;18.50;99.90
15676;DHT22;7938;47.666;9.434;2022-10-15T14:36:29;18.50;99.90
15676;DHT22;7938;47.666;9.434;2022-10-15T14:39:17;18.50;99.90
15676;DHT22;7938;47.666;9.434;2022-10-15T14:41:55;18.70;99.90
15676;DHT22;7938;47.666;9.434;2022-10-15T14:44:22;18.80;99.90
15676;DHT22;7938;47.666;9.434;2022-10-15T14:46:50;18.80;99.90
15676;DHT22;7938;47.666;9.434;2022-10-15T14:49:26;18.90;99.90
15676;DHT22;7938;47.666;9.434;2022-10-15T14:51:58;18.70;99.90
15676;DHT22;7938;47.666;9.434;2022-10-15T14:54:37;18.80;99.90
15676;DHT22;7938;47.666;9.434;2022-10-15T14:57:13;18.60;99.90
15676;DHT22;7938;47.666;9.434;2022-10-15T14:59:42;18.60;99.90
15676;DHT22;7938;47.666;9.434;2022-10-15T15:02:13;18.50;99.90
15676;DHT22;7938;47.666;9.434;2022-10-15T15:04:43;18.40;99.90
15676;DHT22;7938;47.666;9.434;2022-10-15T15:07:16;18.30;99.90
15676;DHT22;7938;47.666;9.434;2022-10-15T15:09:46;18.80;99.90
15676;DHT22;7938;47.666;9.434;2022-10-15T15:12:17;18.10;99.90
15676;DHT22;7938;47.666;9.434;2022-10-15T15:14:45;18.00;99.90
15676;DHT22;7938;47.666;9.434;2022-10-15T15:17:14;17.90;99.90
15676;DHT22;7938;47.666;9.434;2022-10-15T15:19:41;17.80;99.90
15676;DHT22;7938;47.666;9.434;2022-10-15T15:22:10;17.60;99.90
15676;DHT22;7938;47.666;9.434;2022-10-15T15:24:38;17.60;99.90
15676;DHT22;7938;47.666;9.434;2022-10-15T15:27:05;17.50;99.90
15676;DHT22;7938;47.666;9.434;2022-10-15T15:29:32;17.40;99.90
15676;DHT22;7938;47.666;9.434;2022-10-15T15:31:59;17.30;99.90
15676;DHT22;7938;47.666;9.434;2022-10-15T15:34:26;17.30;99.90
15676;DHT22;7938;47.666;9.434;2022-10-15T15:36:53;17.30;99.90
15676;DHT22;7938;47.666;9.434;2022-10-15T15:39:20;17.30;99.90
15676;DHT22;7938;47.666;9.434;2022-10-15T15:41:48;17.30;99.90
15676;DHT22;7938;47.666;9.434;2022-10-15T15:44:15;17.20;99.90
15676;DHT22;7938;47.666;9.434;2022-10-15T15:46:42;17.20;99.90
15676;DHT22;7938;47.666;9.434;2022-10-15T15:49:09;17.20;99.90
15676;DHT22;7938;47.666;9.434;2022-10-15T15:51:36;17.20;99.90
15676;DHT22;7938;47.666;9.434;2022-10-15T15:54:03;17.10;99.90
15676;DHT22;7938;47.666;9.434;2022-10-15T15:56:31;17.20;99.90
15676;DHT22;7938;47.666;9.434;2022-10-15T15:59:00;17.10;99.90
15676;DHT22;7938;47.666;9.434;2022-10-15T16:01:27;17.00;99.90
15676;DHT22;7938;47.666;9.434;2022-10-15T16:03:54;16.90;99.90
15676;DHT22;7938;47.666;9.434;2022-10-15T16:06:21;16.90;99.90
15676;DHT22;7938;47.666;9.434;2022-10-15T16:08:50;16.80;99.90
15676;DHT22;7938;47.666;9.434;2022-10-15T16:11:17;16.70;99.90
15676;DHT22;7938;47.666;9.434;2022-10-15T16:13:47;16.70;99.90
15676;DHT22;7938;47.666;9.434;2022-10-15T16:16:15;16.60;99.90
15676;DHT22;7938;47.666;9.434;2022-10-15T16:18:42;16.50;99.90
15676;DHT22;7938;47.666;9.434;2022-10-15T16:21:09;16.50;99.90
15676;DHT22;7938;47.666;9.434;2022-10-15T16:23:36;16.50;99.90
15676;DHT22;7938;47.666;9.434;2022-10-15T16:26:03;16.40;99.90
15676;DHT22;7938;47.666;9.434;2022-10-15T16:28:30;16.40;99.90
15676;DHT22;7938;47.666;9.434;2022-10-15T16:31:12;16.30;99.90
15676;DHT22;7938;47.666;9.434;2022-10-15T16:33:41;16.30;99.90
15676;DHT22;7938;47.666;9.434;2022-10-15T16:36:08;16.30;99.90
15676;DHT22;7938;47.666;9.434;2022-10-15T16:38:37;16.20;99.90
15676;DHT22;7938;47.666;9.434;2022-10-15T16:41:04;16.10;99.90
15676;DHT22;7938;47.666;9.434;2022-10-15T16:43:31;16.10;99.90
15676;DHT22;7938;47.666;9.434;2022-10-15T16:45:58;15.90;99.90
15676;DHT22;7938;47.666;9.434;2022-10-15T16:48:26;15.80;99.90
15676;DHT22;7938;47.666;9.434;2022-10-15T16:51:01;15.70;99.90
15676;DHT22;7938;47.666;9.434;2022-10-15T16:53:29;15.70;99.90
15676;DHT22;7938;47.666;9.434;2022-10-15T16:56:01;15.60;99.90
15676;DHT22;7938;47.666;9.434;2022-10-15T16:58:28;15.60;99.90
15676;DHT22;7938;47.666;9.434;2022-10-15T17:00:57;15.60;99.90
15676;DHT22;7938;47.666;9.434;2022-10-15T17:03:26;15.50;99.90
15676;DHT22;7938;47.666;9.434;2022-10-15T17:05:57;15.30;99.90
15676;DHT22;7938;47.666;9.434;2022-10-15T17:08:28;15.20;99.90
15676;DHT22;7938;47.666;9.434;2022-10-15T17:10:59;15.20;99.90
15676;DHT22;7938;47.666;9.434;2022-10-15T17:13:26;15.10;99.90
15676;DHT22;7938;47.666;9.434;2022-10-15T17:15:53;15.00;99.90
15676;DHT22;7938;47.666;9.434;2022-10-15T17:18:19;15.00;99.90
15676;DHT22;7938;47.666;9.434;2022-10-15T17:20:47;14.90;99.90
15676;DHT22;7938;47.666;9.434;2022-10-15T17:23:15;14.80;99.90
15676;DHT22;7938;47.666;9.434;2022-10-15T17:25:43;14.70;99.90
15676;DHT22;7938;47.666;9.434;2022-10-15T17:28:10;14.60;99.90
15676;DHT22;7938;47.666;9.434;2022-10-15T17:30:37;14.60;99.90
15676;DHT22;7938;47.666;9.434;2022-10-15T17:33:04;14.40;99.90
15676;DHT22;7938;47.666;9.434;2022-10-15T17:35:35;14.30;99.90
15676;DHT22;7938;47.666;9.434;2022-10-15T17:38:03;14.20;99.90
15676;DHT22;7938;47.666;9.434;2022-10-15T17:40:30;14.10;99.90
15676;DHT22;7938;47.666;9.434;2022-10-15T17:42:58;14.10;99.90
15676;DHT22;7938;47.666;9.434;2022-10-15T17:45:25;14.00;99.90
15676;DHT22;7938;47.666;9.434;2022-10-15T17:47:52;14.00;99.90
15676;DHT22;7938;47.666;9.434;2022-10-15T17:50:19;13.90;99.90
15676;DHT22;7938;47.666;9.434;2022-10-15T17:52:46;13.90;99.90
15676;DHT22;7938;47.666;9.434;2022-10-15T17:55:13;13.80;99.90
15676;DHT22;7938;47.666;9.434;2022-10-15T17:57:41;13.80;99.90
15676;DHT22;7938;47.666;9.434;2022-10-15T18:00:11;13.70;99.90
15676;DHT22;7938;47.666;9.434;2022-10-15T18:02:38;13.60;99.90
15676;DHT22;7938;47.666;9.434;2022-10-15T18:05:05;13.60;99.90
15676;DHT22;7938;47.666;9.434;2022-10-15T18:07:32;13.50;99.90
15676;DHT22;7938;47.666;9.434;2022-10-15T18:09:59;13.50;99.90
15676;DHT22;7938;47.666;9.434;2022-10-15T18:12:26;13.30;99.90
15676;DHT22;7938;47.666;9.434;2022-10-15T18:14:53;13.20;99.90
15676;DHT22;7938;47.666;9.434;2022-10-15T18:17:21;13.20;99.90
15676;DHT22;7938;47.666;9.434;2022-10-15T18:19:48;13.20;99.90
15676;DHT22;7938;47.666;9.434;2022-10-15T18:22:15;13.10;99.90
15676;DHT22;7938;47.666;9.434;2022-10-15T18:24:42;13.00;99.90
15676;DHT22;7938;47.666;9.434;2022-10-15T18:27:09;13.00;99.90
15676;DHT22;7938;47.666;9.434;2022-10-15T18:29:36;12.90;99.90
15676;DHT22;7938;47.666;9.434;2022-10-15T18:32:04;13.00;99.90
15676;DHT22;7938;47.666;9.434;2022-10-15T18:34:32;13.00;99.90
15676;DHT22;7938;47.666;9.434;2022-10-15T18:36:59;12.90;99.90
15676;DHT22;7938;47.666;9.434;2022-10-15T18:39:26;12.90;99.90
15676;DHT22;7938;47.666;9.434;2022-10-15T18:41:53;12.90;99.90
15676;DHT22;7938;47.666;9.434;2022-10-15T18:44:20;12.80;99.90
15676;DHT22;7938;47.666;9.434;2022-10-15T18:46:48;12.80;99.90
15676;DHT22;7938;47.666;9.434;2022-10-15T18:49:16;12.80;99.90
15676;DHT22;7938;47.666;9.434;2022-10-15T18:51:44;12.70;99.90
15676;DHT22;7938;47.666;9.434;2022-10-15T18:54:15;12.60;99.90
15676;DHT22;7938;47.666;9.434;2022-10-15T18:56:42;12.60;99.90
15676;DHT22;7938;47.666;9.434;2022-10-15T18:59:09;12.70;99.90
15676;DHT22;7938;47.666;9.434;2022-10-15T19:01:37;12.70;99.90
15676;DHT22;7938;47.666;9.434;2022-10-15T19:04:08;12.60;99.90
15676;DHT22;7938;47.666;9.434;2022-10-15T19:06:36;12.50;99.90
15676;DHT22;7938;47.666;9.434;2022-10-15T19:09:07;12.40;99.90
15676;DHT22;7938;47.666;9.434;2022-10-15T19:11:36;12.50;99.90
15676;DHT22;7938;47.666;9.434;2022-10-15T19:14:04;12.50;99.90
15676;DHT22;7938;47.666;9.434;2022-10-15T19:16:32;12.40;99.90
15676;DHT22;7938;47.666;9.434;2022-10-15T19:19:00;12.40;99.90
15676;DHT22;7938;47.666;9.434;2022-10-15T19:21:27;12.40;99.90
15676;DHT22;7938;47.666;9.434;2022-10-15T19:23:54;12.50;99.90
15676;DHT22;7938;47.666;9.434;2022-10-15T19:26:22;12.60;99.90
15676;DHT22;7938;47.666;9.434;2022-10-15T19:28:49;12.50;99.90
15676;DHT22;7938;47.666;9.434;2022-10-15T19:31:21;12.60;99.90
15676;DHT22;7938;47.666;9.434;2022-10-15T19:33:48;12.60;99.90
15676;DHT22;7938;47.666;9.434;2022-10-15T19:36:19;13.30;99.90
15676;DHT22;7938;47.666;9.434;2022-10-15T19:38:46;12.50;99.90
15676;DHT22;7938;47.666;9.434;2022-10-15T19:41:13;12.50;99.90
15676;DHT22;7938;47.666;9.434;2022-10-15T19:43:41;12.60;99.90
15676;DHT22;7938;47.666;9.434;2022-10-15T19:46:08;12.60;99.90
15676;DHT22;7938;47.666;9.434;2022-10-15T19:48:35;12.60;99.90
15676;DHT22;7938;47.666;9.434;2022-10-15T19:51:03;12.60;99.90
15676;DHT22;7938;47.666;9.434;2022-10-15T19:53:31;12.60;99.90
15676;DHT22;7938;47.666;9.434;2022-10-15T19:55:59;12.60;99.90
15676;DHT22;7938;47.666;9.434;2022-10-15T19:58:27;12.60;99.90
15676;DHT22;7938;47.666;9.434;2022-10-15T20:00:55;12.50;99.90
15676;DHT22;7938;47.666;9.434;2022-10-15T20:03:24;12.60;99.90
15676;DHT22;7938;47.666;9.434;2022-10-15T20:05:51;12.60;99.90
15676;DHT22;7938;47.666;9.434;2022-10-15T20:08:18;12.60;99.90
15676;DHT22;7938;47.666;9.434;2022-10-15T20:10:47;12.60;99.90
15676;DHT22;7938;47.666;9.434;2022-10-15T20:13:17;12.60;99.90